Time;durP1;ratioP1;P1;durP2;ratioP2;P2;SDS_P1;SDS_P2;PMS_P1;PMS_P2;Temp;Humidity;BMP_temperature;BMP_pressure;BME280_temperature;BME280_humidity;BME280_pressure;Samples;Min_cycle;Max_cycle;Signal;HPM_P1;HPM_P2
2021/03/14 00:02:23;;;;;;;5.30;1.80;;;;;;;;;;5055654;28;20204;-69
2021/03/14 00:04:49;;;;;;;2.45;1.67;;;;;;;;;;5055205;28;20213;-70
2021/03/14 00:07:15;;;;;;;4.65;2.05;;;;;;;;;;5055513;28;20181;-68
2021/03/14 00:09:41;;;;;;;5.88;1.75;;;;;;;;;;5055465;28;20593;-68
2021/03/14 00:12:07;;;;;;;3.38;1.90;;;;;;;;;;5055373;28;20173;-70
2021/03/14 00:14:34;;;;;;;3.92;2.05;;;;;;;;;;5055058;28;20197;-71
2021/03/14 00:17:00;;;;;;;7.68;3.30;;;;;;;;;;5055485;28;20530;-70
2021/03/14 00:19:26;;;;;;;5.38;2.35;;;;;;;;;;5055449;28;20173;-71
2021/03/14 00:21:52;;;;;;;5.70;2.17;;;;;;;;;;5055477;28;20736;-70
2021/03/14 00:24:18;;;;;;;5.80;2.17;;;;;;;;;;5054844;28;20193;-70
2021/03/14 00:26:44;;;;;;;6.22;2.70;;;;;;;;;;5055261;28;20173;-70
2021/03/14 00:29:10;;;;;;;11.80;2.85;;;;;;;;;;5055387;28;20176;-70
2021/03/14 00:31:36;;;;;;;5.32;3.75;;;;;;;;;;5054804;28;20231;-70
2021/03/14 00:34:02;;;;;;;7.78;3.00;;;;;;;;;;5063256;28;20281;-70
2021/03/14 00:36:28;;;;;;;4.47;3.10;;;;;;;;;;5075131;28;20565;-71
2021/03/14 00:38:54;;;;;;;11.27;3.80;;;;;;;;;;5075419;28;20621;-70
2021/03/14 00:41:21;;;;;;;9.95;3.45;;;;;;;;;;5054507;28;20189;-69
2021/03/14 00:43:47;;;;;;;4.82;3.70;;;;;;;;;;5057226;28;20197;-69
2021/03/14 00:46:13;;;;;;;7.18;3.67;;;;;;;;;;5054570;28;20203;-69
2021/03/14 00:48:39;;;;;;;8.00;2.85;;;;;;;;;;5056540;28;20191;-69
2021/03/14 00:51:05;;;;;;;6.55;1.95;;;;;;;;;;5073660;28;20199;-69
2021/03/14 00:53:31;;;;;;;5.03;2.42;;;;;;;;;;5058575;28;20203;-69
2021/03/14 00:55:57;;;;;;;5.68;2.15;;;;;;;;;;5048768;28;20223;-70
2021/03/14 00:58:23;;;;;;;3.92;2.08;;;;;;;;;;5061774;28;20243;-70
2021/03/14 01:00:49;;;;;;;2.70;1.52;;;;;;;;;;5061150;28;20176;-71
2021/03/14 01:03:15;;;;;;;7.35;2.08;;;;;;;;;;5053836;28;20196;-69
2021/03/14 01:05:42;;;;;;;5.97;1.88;;;;;;;;;;5054050;28;20234;-69
2021/03/14 01:08:08;;;;;;;5.80;2.30;;;;;;;;;;5053876;28;20276;-70
2021/03/14 01:10:34;;;;;;;4.65;1.75;;;;;;;;;;5045287;28;20170;-71
2021/03/14 01:13:00;;;;;;;2.90;1.80;;;;;;;;;;5053719;28;20177;-71
2021/03/14 01:15:26;;;;;;;4.43;1.90;;;;;;;;;;5054060;28;20558;-71
2021/03/14 01:17:52;;;;;;;3.28;1.65;;;;;;;;;;5053836;28;20172;-70
2021/03/14 01:20:19;;;;;;;5.30;1.98;;;;;;;;;;5053777;28;20192;-70
2021/03/14 01:22:46;;;;;;;2.30;1.60;;;;;;;;;;5053574;28;20177;-69
2021/03/14 01:25:12;;;;;;;3.53;1.65;;;;;;;;;;5051336;28;20208;-71
2021/03/14 01:27:39;;;;;;;3.03;1.98;;;;;;;;;;5066728;28;20582;-71
2021/03/14 01:30:05;;;;;;;7.03;2.13;;;;;;;;;;5051621;28;20187;-71
2021/03/14 01:32:32;;;;;;;4.00;2.10;;;;;;;;;;5072903;28;20180;-68
2021/03/14 01:34:58;;;;;;;4.75;1.90;;;;;;;;;;5056643;28;20546;-70
2021/03/14 01:37:24;;;;;;;4.13;2.05;;;;;;;;;;5053227;28;20173;-70
2021/03/14 01:39:50;;;;;;;5.30;2.08;;;;;;;;;;5051308;28;20682;-70
2021/03/14 01:42:24;;;;;;;4.75;2.13;;;;;;;;;;5049780;28;20185;-71
2021/03/14 01:44:50;;;;;;;4.45;2.20;;;;;;;;;;5053733;28;20189;-71
2021/03/14 01:47:16;;;;;;;5.93;2.75;;;;;;;;;;5053049;28;20196;-70
2021/03/14 01:49:42;;;;;;;5.35;2.45;;;;;;;;;;5053157;28;20213;-69
2021/03/14 01:52:08;;;;;;;7.10;2.55;;;;;;;;;;5043500;28;20812;-70
2021/03/14 01:54:34;;;;;;;4.55;2.40;;;;;;;;;;5065880;28;20196;-70
2021/03/14 01:57:00;;;;;;;6.18;2.35;;;;;;;;;;5049900;28;20198;-71
2021/03/14 01:59:27;;;;;;;4.05;2.65;;;;;;;;;;5069976;28;20251;-70
2021/03/14 02:01:53;;;;;;;4.43;2.38;;;;;;;;;;5059685;28;20169;-70
2021/03/14 02:04:19;;;;;;;4.28;2.25;;;;;;;;;;5052842;28;20196;-72
2021/03/14 02:06:45;;;;;;;6.93;2.60;;;;;;;;;;5062913;28;20203;-70
2021/03/14 02:09:11;;;;;;;6.35;2.10;;;;;;;;;;5061615;28;20187;-71
2021/03/14 02:11:39;;;;;;;7.10;2.97;;;;;;;;;;5052661;28;20181;-71
2021/03/14 02:14:06;;;;;;;6.10;2.60;;;;;;;;;;5053583;28;20694;-69
2021/03/14 02:16:34;;;;;;;9.13;2.97;;;;;;;;;;5053124;28;20200;-71
2021/03/14 02:19:01;;;;;;;10.13;3.58;;;;;;;;;;5052405;28;20637;-70
2021/03/14 02:21:31;;;;;;;10.50;3.72;;;;;;;;;;5059229;28;20230;-71
2021/03/14 02:24:01;;;;;;;15.32;3.92;;;;;;;;;;5064569;28;20206;-69
2021/03/14 02:26:37;;;;;;;9.88;3.90;;;;;;;;;;5054142;28;20349;-70
2021/03/14 02:29:04;;;;;;;13.55;3.80;;;;;;;;;;5052645;28;20697;-71
2021/03/14 02:31:30;;;;;;;14.80;4.65;;;;;;;;;;5062692;28;20190;-71
2021/03/14 02:34:02;;;;;;;14.88;5.32;;;;;;;;;;5069113;28;20261;-71
2021/03/14 02:36:29;;;;;;;13.20;4.35;;;;;;;;;;5041098;28;20673;-70
2021/03/14 02:38:55;;;;;;;15.68;4.95;;;;;;;;;;5034203;28;20215;-71
2021/03/14 02:41:22;;;;;;;14.18;4.85;;;;;;;;;;5045321;28;20178;-70
2021/03/14 02:43:48;;;;;;;11.52;4.55;;;;;;;;;;5055616;28;20259;-69
2021/03/14 02:46:15;;;;;;;18.17;4.32;;;;;;;;;;5052956;28;20645;-71
2021/03/14 02:48:41;;;;;;;15.38;3.97;;;;;;;;;;5058048;28;20176;-70
2021/03/14 02:51:08;;;;;;;7.60;3.78;;;;;;;;;;5070992;28;20176;-70
2021/03/14 02:53:34;;;;;;;11.43;4.90;;;;;;;;;;5044435;28;20210;-69
2021/03/14 02:56:00;;;;;;;14.40;5.05;;;;;;;;;;5063970;28;20561;-70
2021/03/14 02:58:27;;;;;;;17.75;3.90;;;;;;;;;;5041871;28;20222;-70
2021/03/14 03:00:53;;;;;;;10.80;4.18;;;;;;;;;;5052165;28;20177;-69
2021/03/14 03:03:23;;;;;;;11.48;4.28;;;;;;;;;;5052128;28;20193;-69
2021/03/14 03:05:49;;;;;;;8.55;3.78;;;;;;;;;;5052318;28;20215;-68
2021/03/14 03:08:17;;;;;;;10.10;4.30;;;;;;;;;;5052621;28;20199;-69
2021/03/14 03:10:45;;;;;;;7.90;3.33;;;;;;;;;;5043594;28;20191;-69
2021/03/14 03:13:11;;;;;;;4.75;3.00;;;;;;;;;;5052132;28;20177;-69
2021/03/14 03:15:38;;;;;;;10.45;3.88;;;;;;;;;;5052757;28;20331;-69
2021/03/14 03:18:04;;;;;;;7.15;4.13;;;;;;;;;;5052560;28;20219;-69
2021/03/14 03:20:30;;;;;;;8.73;4.22;;;;;;;;;;5043937;28;20621;-68
2021/03/14 03:22:56;;;;;;;7.28;4.10;;;;;;;;;;5052006;28;20556;-70
2021/03/14 03:25:23;;;;;;;5.10;3.55;;;;;;;;;;5050258;28;20194;-70
2021/03/14 03:27:49;;;;;;;8.90;3.67;;;;;;;;;;5066315;28;20562;-70
2021/03/14 03:30:16;;;;;;;8.63;4.70;;;;;;;;;;5052342;28;20224;-70
2021/03/14 03:32:42;;;;;;;6.75;3.75;;;;;;;;;;5050990;28;20184;-70
2021/03/14 03:35:09;;;;;;;5.38;3.55;;;;;;;;;;5055807;28;20291;-70
2021/03/14 03:37:35;;;;;;;8.80;2.90;;;;;;;;;;5056267;28;20177;-70
2021/03/14 03:40:04;;;;;;;10.45;4.35;;;;;;;;;;5051463;28;20184;-70
2021/03/14 03:42:31;;;;;;;5.72;2.90;;;;;;;;;;5056061;28;20177;-69
2021/03/14 03:44:58;;;;;;;18.67;4.00;;;;;;;;;;5055238;28;20197;-69
2021/03/14 03:47:25;;;;;;;7.97;3.30;;;;;;;;;;5056138;28;20210;-68
2021/03/14 03:49:52;;;;;;;9.73;3.20;;;;;;;;;;5053987;28;20626;-69
2021/03/14 03:52:19;;;;;;;6.38;3.50;;;;;;;;;;5056031;28;20226;-68
2021/03/14 03:54:47;;;;;;;10.63;4.50;;;;;;;;;;5049505;28;20237;-68
2021/03/14 03:57:13;;;;;;;6.68;4.32;;;;;;;;;;5047991;28;20530;-69
2021/03/14 03:59:40;;;;;;;7.63;3.33;;;;;;;;;;5050224;28;20185;-69
2021/03/14 04:02:06;;;;;;;6.82;3.65;;;;;;;;;;5054985;28;20177;-69
2021/03/14 04:04:41;;;;;;;7.05;3.45;;;;;;;;;;5054564;28;20200;-68
2021/03/14 04:07:08;;;;;;;8.25;3.42;;;;;;;;;;5050266;28;20342;-70
2021/03/14 04:09:34;;;;;;;8.23;3.20;;;;;;;;;;5055070;28;20215;-70
2021/03/14 04:12:01;;;;;;;10.93;3.42;;;;;;;;;;5055629;28;20286;-69
2021/03/14 04:14:28;;;;;;;10.23;3.17;;;;;;;;;;5055168;28;20403;-69
2021/03/14 04:16:55;;;;;;;6.47;3.22;;;;;;;;;;5051861;28;20201;-69
2021/03/14 04:19:22;;;;;;;4.90;2.85;;;;;;;;;;5066806;28;20173;-69
2021/03/14 04:21:48;;;;;;;6.75;3.60;;;;;;;;;;5063300;28;20191;-69
2021/03/14 04:24:16;;;;;;;9.65;3.60;;;;;;;;;;5074055;28;20553;-69
2021/03/14 04:26:43;;;;;;;9.40;3.40;;;;;;;;;;5039420;28;20712;-70
2021/03/14 04:29:10;;;;;;;13.65;3.70;;;;;;;;;;5067232;28;20181;-68
2021/03/14 04:31:40;;;;;;;6.20;3.40;;;;;;;;;;5065683;28;20267;-69
2021/03/14 04:34:07;;;;;;;9.55;3.70;;;;;;;;;;5068636;28;20250;-68
2021/03/14 04:36:34;;;;;;;7.22;3.40;;;;;;;;;;5054775;28;20216;-69
2021/03/14 04:39:00;;;;;;;11.07;4.03;;;;;;;;;;5062798;28;20172;-70
2021/03/14 04:41:26;;;;;;;13.40;3.47;;;;;;;;;;5058101;28;20189;-69
2021/03/14 04:43:53;;;;;;;8.65;4.07;;;;;;;;;;5057148;28;20443;-70
2021/03/14 04:46:19;;;;;;;13.27;3.83;;;;;;;;;;5054162;28;20176;-69
2021/03/14 04:48:45;;;;;;;11.38;5.93;;;;;;;;;;5054127;28;20185;-69
2021/03/14 04:51:12;;;;;;;10.80;4.97;;;;;;;;;;5054417;28;20173;-69
2021/03/14 04:53:38;;;;;;;10.20;4.10;;;;;;;;;;5053614;28;20543;-69
2021/03/14 04:56:04;;;;;;;12.95;4.28;;;;;;;;;;5054426;28;20200;-71
2021/03/14 04:58:30;;;;;;;10.30;3.75;;;;;;;;;;5053778;28;20660;-74
2021/03/14 05:00:57;;;;;;;14.13;4.00;;;;;;;;;;5052436;28;20186;-69
2021/03/14 05:03:24;;;;;;;8.15;4.05;;;;;;;;;;5056805;28;20198;-71
2021/03/14 05:05:50;;;;;;;13.27;4.00;;;;;;;;;;5050127;28;20225;-71
2021/03/14 05:08:18;;;;;;;8.75;4.00;;;;;;;;;;5052626;28;20280;-70
2021/03/14 05:10:45;;;;;;;6.85;3.80;;;;;;;;;;5053305;28;20549;-70
2021/03/14 05:13:12;;;;;;;12.63;3.85;;;;;;;;;;5053762;28;20177;-70
2021/03/14 05:15:38;;;;;;;10.93;4.35;;;;;;;;;;5067235;28;20201;-69
2021/03/14 05:18:06;;;;;;;10.50;3.53;;;;;;;;;;5054124;28;20212;-69
2021/03/14 05:20:32;;;;;;;6.82;3.20;;;;;;;;;;5053633;28;20618;-68
2021/03/14 05:22:58;;;;;;;10.55;3.30;;;;;;;;;;5053381;28;20181;-70
2021/03/14 05:25:24;;;;;;;7.80;2.87;;;;;;;;;;5053203;28;20188;-68
2021/03/14 05:27:50;;;;;;;8.60;3.58;;;;;;;;;;5054165;28;20408;-71
2021/03/14 05:30:21;;;;;;;11.07;5.03;;;;;;;;;;5053456;28;20638;-69
2021/03/14 05:32:47;;;;;;;9.82;4.00;;;;;;;;;;5053899;28;20208;-70
2021/03/14 05:35:13;;;;;;;10.85;4.28;;;;;;;;;;5054339;28;20200;-69
2021/03/14 05:37:39;;;;;;;12.07;4.43;;;;;;;;;;5071953;28;20176;-69
2021/03/14 05:40:05;;;;;;;13.65;5.05;;;;;;;;;;5067426;28;20187;-69
2021/03/14 05:42:32;;;;;;;17.85;4.18;;;;;;;;;;5050129;28;20166;-69
2021/03/14 05:44:58;;;;;;;12.65;4.10;;;;;;;;;;5053231;28;20197;-68
2021/03/14 05:47:24;;;;;;;10.35;4.93;;;;;;;;;;5054176;28;20510;-71
2021/03/14 05:49:51;;;;;;;11.10;4.07;;;;;;;;;;5051010;28;20177;-68
2021/03/14 05:52:20;;;;;;;13.32;4.20;;;;;;;;;;5053706;28;20420;-70
2021/03/14 05:54:47;;;;;;;10.55;4.15;;;;;;;;;;5052372;28;20565;-70
2021/03/14 05:57:16;;;;;;;8.43;3.47;;;;;;;;;;5053936;28;20229;-70
2021/03/14 05:59:44;;;;;;;16.58;4.68;;;;;;;;;;5050438;28;20649;-69
2021/03/14 06:02:10;;;;;;;11.18;3.50;;;;;;;;;;5057076;28;20526;-70
2021/03/14 06:04:37;;;;;;;10.63;3.80;;;;;;;;;;5039338;28;20271;-71
2021/03/14 06:07:04;;;;;;;12.43;3.75;;;;;;;;;;5053041;28;20435;-69
2021/03/14 06:09:30;;;;;;;7.07;3.50;;;;;;;;;;5053435;28;20181;-69
2021/03/14 06:11:56;;;;;;;11.13;3.80;;;;;;;;;;5050721;28;20608;-69
2021/03/14 06:14:22;;;;;;;10.25;3.65;;;;;;;;;;5057303;28;20231;-68
2021/03/14 06:16:48;;;;;;;6.95;3.75;;;;;;;;;;5055454;28;20252;-69
2021/03/14 06:19:14;;;;;;;10.57;4.27;;;;;;;;;;5072449;28;20172;-69
2021/03/14 06:21:40;;;;;;;10.07;4.27;;;;;;;;;;5046877;28;20486;-69
2021/03/14 06:24:07;;;;;;;8.23;4.60;;;;;;;;;;5059306;28;20923;-70
2021/03/14 06:26:44;;;;;;;12.35;4.25;;;;;;;;;;5062707;28;20267;-69
2021/03/14 06:29:22;;;;;;;18.67;5.28;;;;;;;;;;5066232;28;20176;-69
2021/03/14 06:31:49;;;;;;;12.98;4.50;;;;;;;;;;5053134;28;20185;-69
2021/03/14 06:34:32;;;;;;;12.77;4.18;;;;;;;;;;5050463;28;20277;-70
2021/03/14 06:37:00;;;;;;;6.53;3.75;;;;;;;;;;5070082;28;20635;-70
2021/03/14 06:39:30;;;;;;;12.40;3.97;;;;;;;;;;5053008;28;20176;-70
2021/03/14 06:41:56;;;;;;;10.38;3.65;;;;;;;;;;5048459;28;20184;-70
2021/03/14 06:44:30;;;;;;;10.73;4.25;;;;;;;;;;5046985;28;20204;-70
2021/03/14 06:46:56;;;;;;;10.73;4.68;;;;;;;;;;5053028;28;20546;-70
2021/03/14 06:49:24;;;;;;;11.45;4.00;;;;;;;;;;5050649;28;20180;-70
2021/03/14 06:51:54;;;;;;;14.38;5.25;;;;;;;;;;5052908;28;20636;-70
2021/03/14 06:54:24;;;;;;;16.30;4.80;;;;;;;;;;5050329;28;20630;-68
2021/03/14 06:57:01;;;;;;;12.80;4.30;;;;;;;;;;5053342;28;20261;-71
2021/03/14 06:59:27;;;;;;;14.35;5.80;;;;;;;;;;5059325;28;20199;-70
2021/03/14 07:01:57;;;;;;;10.88;3.88;;;;;;;;;;5070361;28;20180;-70
2021/03/14 07:04:36;;;;;;;16.23;5.07;;;;;;;;;;5043000;28;20192;-69
2021/03/14 07:07:02;;;;;;;17.35;4.43;;;;;;;;;;5059428;28;20517;-70
2021/03/14 07:09:28;;;;;;;13.48;4.10;;;;;;;;;;5072473;28;20180;-70
2021/03/14 07:11:54;;;;;;;14.57;4.77;;;;;;;;;;5054721;28;20173;-70
2021/03/14 07:14:21;;;;;;;12.35;4.20;;;;;;;;;;5056200;28;20398;-70
2021/03/14 07:16:51;;;;;;;8.48;4.00;;;;;;;;;;5056441;28;20197;-70
2021/03/14 07:19:17;;;;;;;13.55;4.10;;;;;;;;;;5062532;28;20180;-70
2021/03/14 07:21:43;;;;;;;13.43;4.43;;;;;;;;;;5055734;28;20507;-70
2021/03/14 07:24:13;;;;;;;15.82;4.03;;;;;;;;;;5056184;28;20431;-69
2021/03/14 07:26:46;;;;;;;12.15;4.60;;;;;;;;;;5055580;28;20225;-70
2021/03/14 07:29:12;;;;;;;10.50;4.22;;;;;;;;;;5056580;28;20329;-70
2021/03/14 07:31:38;;;;;;;18.50;5.80;;;;;;;;;;5056099;28;20662;-69
2021/03/14 07:34:05;;;;;;;12.60;4.07;;;;;;;;;;5044914;28;20212;-69
2021/03/14 07:36:31;;;;;;;13.95;4.63;;;;;;;;;;5043080;28;20216;-69
2021/03/14 07:38:58;;;;;;;11.60;3.80;;;;;;;;;;5053511;28;20196;-69
2021/03/14 07:41:25;;;;;;;14.48;4.10;;;;;;;;;;5056900;28;20673;-71
2021/03/14 07:43:51;;;;;;;9.10;4.10;;;;;;;;;;5056071;28;20247;-69
2021/03/14 07:46:20;;;;;;;10.15;4.68;;;;;;;;;;5056022;28;20712;-70
2021/03/14 07:48:46;;;;;;;10.07;3.83;;;;;;;;;;5056134;28;20188;-70
2021/03/14 07:51:12;;;;;;;12.52;4.57;;;;;;;;;;5068453;28;20180;-71
2021/03/14 07:53:38;;;;;;;11.60;4.38;;;;;;;;;;5075564;28;20204;-71
2021/03/14 07:56:05;;;;;;;15.32;4.20;;;;;;;;;;5064397;28;20270;-69
2021/03/14 07:58:33;;;;;;;15.30;4.90;;;;;;;;;;5055851;28;20173;-69
2021/03/14 08:01:19;;;;;;;6.60;4.13;;;;;;;;;;5055306;28;20617;-69
2021/03/14 08:03:45;;;;;;;8.13;3.50;;;;;;;;;;5052987;28;20197;-70
2021/03/14 08:06:11;;;;;;;11.30;3.83;;;;;;;;;;5056131;28;20254;-70
2021/03/14 08:08:37;;;;;;;7.80;5.50;;;;;;;;;;5054302;28;20477;-70
2021/03/14 08:11:03;;;;;;;18.13;4.80;;;;;;;;;;5055743;28;20432;-70
2021/03/14 08:13:32;;;;;;;11.10;4.13;;;;;;;;;;5055286;28;20414;-70
2021/03/14 08:16:02;;;;;;;12.07;4.53;;;;;;;;;;5055374;28;20462;-70
2021/03/14 08:18:35;;;;;;;11.75;4.20;;;;;;;;;;5053543;28;20311;-70
2021/03/14 08:21:01;;;;;;;13.50;4.05;;;;;;;;;;5056637;28;20172;-70
2021/03/14 08:23:41;;;;;;;12.47;4.30;;;;;;;;;;5072131;28;20204;-70
2021/03/14 08:26:21;;;;;;;15.20;4.90;;;;;;;;;;5075502;28;20949;-70
2021/03/14 08:28:54;;;;;;;14.30;4.72;;;;;;;;;;5068023;28;20180;-70
2021/03/14 08:31:38;;;;;;;12.63;3.63;;;;;;;;;;5054222;28;20186;-70
2021/03/14 08:34:05;;;;;;;11.88;5.13;;;;;;;;;;5043538;28;20207;-70
2021/03/14 08:36:32;;;;;;;9.98;5.00;;;;;;;;;;5054709;28;20205;-71
2021/03/14 08:38:58;;;;;;;13.90;4.95;;;;;;;;;;5054844;28;20205;-69
2021/03/14 08:41:24;;;;;;;14.32;4.65;;;;;;;;;;5045835;28;20259;-72
2021/03/14 08:43:52;;;;;;;11.07;3.67;;;;;;;;;;5054054;28;20193;-70
2021/03/14 08:46:18;;;;;;;11.77;3.88;;;;;;;;;;5053842;28;20394;-71
2021/03/14 08:48:44;;;;;;;11.32;3.47;;;;;;;;;;5063565;28;20259;-70
2021/03/14 08:51:11;;;;;;;9.18;4.38;;;;;;;;;;5074696;28;20180;-70
2021/03/14 08:53:38;;;;;;;14.55;3.85;;;;;;;;;;5051272;28;20847;-70
2021/03/14 08:56:05;;;;;;;10.30;4.35;;;;;;;;;;5049943;28;20201;-68
2021/03/14 08:58:32;;;;;;;7.03;3.30;;;;;;;;;;5051011;28;20182;-70
2021/03/14 09:01:06;;;;;;;9.25;3.65;;;;;;;;;;5055893;28;20185;-69
2021/03/14 09:03:32;;;;;;;14.77;3.80;;;;;;;;;;5052854;28;20197;-70
2021/03/14 09:06:17;;;;;;;4.55;2.60;;;;;;;;;;5051733;28;20246;-70
2021/03/14 09:09:03;;;;;;;5.60;3.20;;;;;;;;;;5051976;28;20184;-70
2021/03/14 09:11:39;;;;;;;4.93;2.22;;;;;;;;;;5058041;28;20708;-70
2021/03/14 09:14:23;;;;;;;8.77;3.05;;;;;;;;;;5056136;28;20200;-70
2021/03/14 09:16:50;;;;;;;8.85;2.75;;;;;;;;;;5064962;28;20246;-69
2021/03/14 09:19:30;;;;;;;6.38;3.10;;;;;;;;;;5054236;28;20599;-72
2021/03/14 09:21:57;;;;;;;6.57;2.40;;;;;;;;;;5054359;28;20279;-70
2021/03/14 09:24:24;;;;;;;7.65;3.08;;;;;;;;;;5066205;28;20200;-70
2021/03/14 09:26:54;;;;;;;12.55;3.03;;;;;;;;;;5061013;28;20645;-70
2021/03/14 09:29:40;;;;;;;11.13;2.80;;;;;;;;;;5053565;28;20657;-70
2021/03/14 09:32:16;;;;;;;5.97;2.67;;;;;;;;;;5053214;28;20192;-71
2021/03/14 09:34:42;;;;;;;5.43;2.13;;;;;;;;;;5063284;28;20202;-70
2021/03/14 09:37:08;;;;;;;9.35;2.67;;;;;;;;;;5054711;28;20258;-71
2021/03/14 09:39:34;;;;;;;6.45;2.45;;;;;;;;;;5051610;28;20185;-69
2021/03/14 09:42:00;;;;;;;6.50;2.20;;;;;;;;;;5064579;28;20207;-71
2021/03/14 09:44:26;;;;;;;8.60;2.55;;;;;;;;;;5061497;28;20220;-71
2021/03/14 09:46:53;;;;;;;8.00;2.60;;;;;;;;;;5052538;28;20204;-71
2021/03/14 09:49:19;;;;;;;5.28;2.70;;;;;;;;;;5062535;28;20195;-72
2021/03/14 09:51:57;;;;;;;7.43;2.67;;;;;;;;;;5059748;28;20393;-70
2021/03/14 09:54:24;;;;;;;7.25;2.60;;;;;;;;;;5056985;28;20401;-71
2021/03/14 09:56:51;;;;;;;12.68;2.65;;;;;;;;;;5050033;28;20205;-71
2021/03/14 09:59:21;;;;;;;5.53;2.30;;;;;;;;;;5059944;28;20204;-71
2021/03/14 10:01:47;;;;;;;6.57;1.90;;;;;;;;;;5057511;28;20177;-71
2021/03/14 10:04:14;;;;;;;7.00;2.40;;;;;;;;;;5042539;28;20550;-70
2021/03/14 10:06:40;;;;;;;9.93;2.70;;;;;;;;;;5057322;28;20191;-71
2021/03/14 10:09:06;;;;;;;8.13;2.30;;;;;;;;;;5061433;28;20218;-71
2021/03/14 10:11:32;;;;;;;5.28;2.55;;;;;;;;;;5054990;28;20227;-71
2021/03/14 10:13:58;;;;;;;3.35;1.40;;;;;;;;;;5054099;28;20668;-69
2021/03/14 10:16:27;;;;;;;4.00;1.70;;;;;;;;;;5064613;28;20287;-70
2021/03/14 10:18:58;;;;;;;8.05;2.30;;;;;;;;;;5057142;28;20256;-70
2021/03/14 10:21:26;;;;;;;5.22;2.00;;;;;;;;;;5050281;28;20642;-70
2021/03/14 10:23:52;;;;;;;6.38;2.38;;;;;;;;;;5062648;28;20209;-71
2021/03/14 10:26:18;;;;;;;9.00;4.45;;;;;;;;;;5046442;28;20618;-70
2021/03/14 10:28:47;;;;;;;5.32;2.65;;;;;;;;;;5063665;28;20181;-70
2021/03/14 10:31:14;;;;;;;6.65;3.35;;;;;;;;;;5048711;28;20189;-71
2021/03/14 10:33:43;;;;;;;12.50;6.65;;;;;;;;;;5045595;28;20604;-72
2021/03/14 10:36:11;;;;;;;7.18;3.30;;;;;;;;;;5053147;28;20214;-71
2021/03/14 10:38:39;;;;;;;12.05;4.78;;;;;;;;;;5068372;28;20287;-71
2021/03/14 10:41:09;;;;;;;11.27;5.10;;;;;;;;;;5041678;28;20379;-70
2021/03/14 10:43:44;;;;;;;13.35;5.95;;;;;;;;;;5048226;28;20222;-70
2021/03/14 10:46:10;;;;;;;9.13;5.57;;;;;;;;;;5047783;28;20239;-70
2021/03/14 10:48:36;;;;;;;9.63;3.58;;;;;;;;;;5048403;28;20421;-70
2021/03/14 10:51:03;;;;;;;7.57;3.47;;;;;;;;;;5049052;28;20264;-70
2021/03/14 10:53:29;;;;;;;8.25;3.00;;;;;;;;;;5047879;28;20204;-71
2021/03/14 10:56:03;;;;;;;6.75;6.05;;;;;;;;;;5049063;28;20201;-70
2021/03/14 10:58:40;;;;;;;6.70;3.83;;;;;;;;;;5049140;28;20207;-71
2021/03/14 11:01:08;;;;;;;6.22;4.20;;;;;;;;;;5069158;28;20208;-71
2021/03/14 11:03:37;;;;;;;7.55;3.10;;;;;;;;;;5048303;28;20201;-70
2021/03/14 11:06:10;;;;;;;12.20;8.60;;;;;;;;;;5048928;28;20231;-70
2021/03/14 11:08:46;;;;;;;11.60;3.22;;;;;;;;;;5048367;28;20259;-69
2021/03/14 11:11:12;;;;;;;8.23;3.25;;;;;;;;;;5048965;28;20204;-70
2021/03/14 11:13:37;;;;;;;11.63;3.53;;;;;;;;;;5047870;28;20282;-71
2021/03/14 11:16:04;;;;;;;8.10;2.80;;;;;;;;;;5061265;28;20208;-70
2021/03/14 11:18:30;;;;;;;9.55;3.60;;;;;;;;;;5048160;28;20191;-70
2021/03/14 11:20:56;;;;;;;7.25;2.88;;;;;;;;;;5047978;28;20523;-71
2021/03/14 11:23:22;;;;;;;8.15;2.70;;;;;;;;;;5048355;28;20232;-71
2021/03/14 11:25:48;;;;;;;7.57;2.65;;;;;;;;;;5048232;28;20215;-70
2021/03/14 11:28:14;;;;;;;5.18;2.30;;;;;;;;;;5048803;28;20258;-71
2021/03/14 11:30:40;;;;;;;6.85;2.33;;;;;;;;;;5047197;28;20585;-71
2021/03/14 11:33:07;;;;;;;4.97;2.45;;;;;;;;;;5047604;28;20180;-71
2021/03/14 11:35:33;;;;;;;5.03;2.45;;;;;;;;;;5048498;28;20189;-71
2021/03/14 11:37:59;;;;;;;6.40;2.35;;;;;;;;;;5048064;28;20177;-70
2021/03/14 11:40:25;;;;;;;5.45;2.65;;;;;;;;;;5048786;28;20228;-71
2021/03/14 11:42:51;;;;;;;9.05;2.33;;;;;;;;;;5040697;28;20174;-71
2021/03/14 11:45:17;;;;;;;8.00;2.55;;;;;;;;;;5049277;28;20197;-71
2021/03/14 11:47:44;;;;;;;6.13;3.05;;;;;;;;;;5048452;28;20177;-71
2021/03/14 11:50:10;;;;;;;5.13;2.72;;;;;;;;;;5047966;28;20183;-71
2021/03/14 11:52:36;;;;;;;11.93;6.03;;;;;;;;;;5049409;28;20268;-70
2021/03/14 11:55:03;;;;;;;10.25;6.47;;;;;;;;;;5051462;28;20243;-71
2021/03/14 11:57:29;;;;;;;12.00;3.20;;;;;;;;;;5049348;28;20206;-70
2021/03/14 11:59:56;;;;;;;11.32;2.60;;;;;;;;;;5052049;28;20188;-71
2021/03/14 12:02:22;;;;;;;5.72;2.50;;;;;;;;;;5052027;28;20173;-71
2021/03/14 12:04:48;;;;;;;11.40;2.70;;;;;;;;;;5051693;28;20220;-71
2021/03/14 12:07:14;;;;;;;8.88;2.90;;;;;;;;;;5051923;28;20446;-71
2021/03/14 12:09:41;;;;;;;9.43;3.20;;;;;;;;;;5052033;28;20185;-71
2021/03/14 12:12:07;;;;;;;6.53;2.60;;;;;;;;;;5052014;28;20512;-70
2021/03/14 12:14:33;;;;;;;8.25;7.25;;;;;;;;;;5051548;28;20288;-71
2021/03/14 12:16:59;;;;;;;9.45;4.70;;;;;;;;;;5052242;28;20275;-71
2021/03/14 12:19:25;;;;;;;5.23;3.77;;;;;;;;;;5051917;28;20215;-71
2021/03/14 12:21:51;;;;;;;6.70;3.40;;;;;;;;;;5051702;28;20840;-70
2021/03/14 12:24:17;;;;;;;8.17;3.23;;;;;;;;;;5049995;28;20478;-71
2021/03/14 12:26:43;;;;;;;6.45;2.58;;;;;;;;;;5051544;28;20420;-71
2021/03/14 12:29:09;;;;;;;5.60;2.28;;;;;;;;;;5051612;28;20184;-71
2021/03/14 12:31:35;;;;;;;7.25;2.65;;;;;;;;;;5051175;28;20193;-70
2021/03/14 12:34:01;;;;;;;7.50;2.70;;;;;;;;;;5051144;28;20318;-70
2021/03/14 12:36:27;;;;;;;7.20;2.73;;;;;;;;;;5051302;28;21299;-71
2021/03/14 12:38:53;;;;;;;13.80;4.77;;;;;;;;;;5051497;28;20537;-71
2021/03/14 12:41:19;;;;;;;4.57;2.30;;;;;;;;;;5051069;28;20537;-71
2021/03/14 12:43:45;;;;;;;5.90;2.40;;;;;;;;;;5050899;28;20499;-72
2021/03/14 12:46:11;;;;;;;4.90;2.33;;;;;;;;;;5051071;28;20489;-72
2021/03/14 12:48:37;;;;;;;5.37;2.13;;;;;;;;;;5051219;28;20418;-71
2021/03/14 12:51:03;;;;;;;5.07;2.20;;;;;;;;;;5051015;28;21040;-70
2021/03/14 12:53:29;;;;;;;6.00;2.20;;;;;;;;;;5050673;28;20444;-71
2021/03/14 12:55:57;;;;;;;7.13;3.27;;;;;;;;;;5050814;28;20462;-70
2021/03/14 12:58:23;;;;;;;10.17;7.67;;;;;;;;;;5051000;28;20457;-72
2021/03/14 13:00:49;;;;;;;4.13;2.00;;;;;;;;;;5050736;28;20477;-71
2021/03/14 13:03:15;;;;;;;5.03;1.90;;;;;;;;;;5050267;28;20419;-70
2021/03/14 13:05:41;;;;;;;3.73;2.20;;;;;;;;;;5050120;28;20459;-70
2021/03/14 13:08:07;;;;;;;3.40;1.80;;;;;;;;;;5050809;28;20419;-73
2021/03/14 13:10:36;;;;;;;6.33;1.93;;;;;;;;;;5050778;28;20510;-72
2021/03/14 13:13:02;;;;;;;4.50;2.07;;;;;;;;;;5050566;28;20419;-72
2021/03/14 13:15:28;;;;;;;3.67;1.73;;;;;;;;;;5050796;28;20968;-73
2021/03/14 13:17:54;;;;;;;3.97;1.80;;;;;;;;;;5050773;28;20892;-71
2021/03/14 13:20:20;;;;;;;7.50;2.27;;;;;;;;;;5050707;28;20443;-71
2021/03/14 13:22:46;;;;;;;6.33;1.90;;;;;;;;;;5050509;28;20412;-72
2021/03/14 13:25:13;;;;;;;3.93;2.00;;;;;;;;;;5050423;28;20446;-71
2021/03/14 13:27:39;;;;;;;6.53;2.47;;;;;;;;;;5050244;28;20852;-72
2021/03/14 13:30:07;;;;;;;8.63;2.10;;;;;;;;;;5050173;28;20420;-72
2021/03/14 13:32:33;;;;;;;5.50;2.50;;;;;;;;;;5050175;28;20939;-72
2021/03/14 13:34:59;;;;;;;4.17;1.90;;;;;;;;;;5048924;28;20572;-71
2021/03/14 13:37:25;;;;;;;4.20;2.00;;;;;;;;;;5049810;28;20474;-71
2021/03/14 13:39:51;;;;;;;3.07;1.93;;;;;;;;;;5049016;28;20419;-71
2021/03/14 13:42:18;;;;;;;10.83;2.30;;;;;;;;;;5049651;28;20411;-73
2021/03/14 13:44:45;;;;;;;3.40;1.60;;;;;;;;;;5068485;28;20517;-71
2021/03/14 13:47:11;;;;;;;4.97;2.13;;;;;;;;;;5044789;28;20514;-72
2021/03/14 13:49:37;;;;;;;5.83;2.40;;;;;;;;;;5061634;28;20428;-73
2021/03/14 13:52:03;;;;;;;3.80;1.93;;;;;;;;;;5049804;28;20882;-73
2021/03/14 13:54:30;;;;;;;5.00;2.33;;;;;;;;;;5048836;28;20525;-74
2021/03/14 13:56:56;;;;;;;7.30;1.70;;;;;;;;;;5049700;28;20799;-71
2021/03/14 13:59:22;;;;;;;4.30;1.90;;;;;;;;;;5049697;28;20418;-73
2021/03/14 14:01:48;;;;;;;3.47;1.57;;;;;;;;;;5049129;28;20423;-73
2021/03/14 14:04:14;;;;;;;3.27;1.60;;;;;;;;;;5049234;28;20488;-71
2021/03/14 14:06:41;;;;;;;4.93;1.67;;;;;;;;;;5048912;28;20453;-71
2021/03/14 14:09:07;;;;;;;7.23;1.90;;;;;;;;;;5049577;28;20423;-72
2021/03/14 14:11:33;;;;;;;5.03;1.73;;;;;;;;;;5056060;28;20914;-72
2021/03/14 14:13:59;;;;;;;5.03;2.00;;;;;;;;;;5056452;28;20576;-73
2021/03/14 14:16:25;;;;;;;6.63;1.47;;;;;;;;;;5048742;28;20554;-72
2021/03/14 14:18:51;;;;;;;3.20;1.30;;;;;;;;;;5051888;28;20425;-74
2021/03/14 14:21:17;;;;;;;3.40;1.47;;;;;;;;;;5068752;28;21178;-73
2021/03/14 14:23:44;;;;;;;4.80;2.00;;;;;;;;;;5050932;28;20480;-72
2021/03/14 14:26:10;;;;;;;3.50;1.50;;;;;;;;;;5069503;28;20955;-72
2021/03/14 14:28:36;;;;;;;4.00;1.60;;;;;;;;;;5050310;28;20459;-73
2021/03/14 14:31:02;;;;;;;3.10;1.80;;;;;;;;;;5049167;28;20477;-73
2021/03/14 14:33:28;;;;;;;5.30;1.60;;;;;;;;;;5049071;28;20496;-73
2021/03/14 14:35:54;;;;;;;4.65;1.70;;;;;;;;;;5048781;28;20231;-72
2021/03/14 14:38:20;;;;;;;4.37;1.23;;;;;;;;;;5049378;28;20579;-73
2021/03/14 14:40:46;;;;;;;4.93;1.80;;;;;;;;;;5048595;28;20908;-74